createdAt,value
2019-06-27T00:00:35.940Z,21.13
2019-06-27T00:03:02.221Z,21.11
2019-06-27T00:05:28.553Z,21.10
2019-06-27T00:07:54.868Z,21.07
2019-06-27T00:10:21.182Z,21.01
2019-06-27T00:12:47.516Z,20.97
2019-06-27T00:15:13.824Z,20.86
2019-06-27T00:17:40.163Z,20.79
2019-06-27T00:20:06.473Z,20.76
2019-06-27T00:22:32.803Z,20.70
2019-06-27T00:24:59.116Z,20.65
2019-06-27T00:27:25.449Z,20.60
2019-06-27T00:29:51.783Z,20.66
2019-06-27T00:32:18.091Z,20.77
2019-06-27T00:34:44.421Z,20.79
2019-06-27T00:37:10.732Z,20.89
2019-06-27T00:39:37.048Z,20.99
2019-06-27T00:42:03.396Z,21.02
2019-06-27T00:44:29.708Z,21.12
2019-06-27T00:46:56.041Z,21.11
2019-06-27T00:49:22.376Z,21.02
2019-06-27T00:51:48.684Z,20.81
2019-06-27T00:54:15.020Z,20.77
2019-06-27T00:56:41.328Z,20.64
2019-06-27T00:59:07.666Z,20.54
2019-06-27T01:01:33.976Z,20.52
2019-06-27T01:04:00.310Z,20.45
2019-06-27T01:06:26.620Z,20.64
2019-06-27T01:08:52.935Z,20.75
2019-06-27T01:11:19.270Z,20.59
2019-06-27T01:13:45.582Z,20.47
2019-06-27T01:16:11.911Z,20.39
2019-06-27T01:18:38.221Z,20.46
2019-06-27T01:21:04.559Z,20.43
2019-06-27T01:23:30.874Z,20.28
2019-06-27T01:25:57.214Z,20.08
2019-06-27T01:28:23.552Z,19.97
2019-06-27T01:30:49.869Z,19.92
2019-06-27T01:33:16.208Z,19.87
2019-06-27T01:35:42.521Z,19.83
2019-06-27T01:38:08.861Z,19.76
2019-06-27T01:40:35.175Z,19.70
2019-06-27T01:43:01.524Z,19.50
2019-06-27T01:45:27.825Z,19.38
2019-06-27T01:47:54.142Z,19.43
2019-06-27T01:50:20.487Z,19.50
2019-06-27T01:52:46.796Z,19.49
2019-06-27T01:55:13.133Z,19.42
2019-06-27T01:57:46.788Z,19.35
2019-06-27T02:00:05.785Z,19.30
2019-06-27T02:02:32.119Z,19.33
2019-06-27T02:04:58.438Z,19.32
2019-06-27T02:07:24.755Z,19.36
2019-06-27T02:09:51.118Z,19.40
2019-06-27T02:12:17.409Z,19.43
2019-06-27T02:14:43.742Z,19.53
2019-06-27T02:17:10.058Z,19.50
2019-06-27T02:19:36.396Z,19.40
2019-06-27T02:22:02.708Z,19.37
2019-06-27T02:24:29.046Z,19.35
2019-06-27T02:26:55.381Z,19.28
2019-06-27T02:29:21.696Z,19.17
2019-06-27T02:31:48.028Z,19.14
2019-06-27T02:34:14.342Z,19.27
2019-06-27T02:36:40.676Z,19.25
2019-06-27T02:39:08.389Z,19.19
2019-06-27T02:41:34.726Z,19.20
2019-06-27T02:44:01.048Z,19.25
2019-06-27T02:46:27.366Z,19.24
2019-06-27T02:48:53.698Z,19.23
2019-06-27T02:51:20.008Z,19.14
2019-06-27T02:53:46.341Z,19.12
2019-06-27T02:56:12.658Z,19.16
2019-06-27T02:58:38.996Z,19.16
2019-06-27T03:01:05.308Z,19.13
2019-06-27T03:03:31.643Z,19.16
2019-06-27T03:05:57.993Z,19.10
2019-06-27T03:08:24.296Z,18.97
2019-06-27T03:10:50.628Z,18.85
2019-06-27T03:13:16.937Z,18.73
2019-06-27T03:15:43.263Z,18.64
2019-06-27T03:18:09.600Z,18.64
2019-06-27T03:20:35.921Z,18.55
2019-06-27T03:23:02.256Z,18.47
2019-06-27T03:25:28.594Z,18.46
2019-06-27T03:27:54.914Z,18.37
2019-06-27T03:30:21.269Z,18.34
2019-06-27T03:32:47.561Z,18.28
2019-06-27T03:35:13.928Z,18.31
2019-06-27T03:37:40.209Z,18.30
2019-06-27T03:40:06.599Z,18.31
2019-06-27T03:42:32.920Z,18.28
2019-06-27T03:44:59.231Z,18.28
2019-06-27T03:47:25.571Z,18.25
2019-06-27T03:49:51.885Z,18.29
2019-06-27T03:52:18.219Z,18.35
2019-06-27T03:54:44.542Z,18.40
2019-06-27T03:57:10.881Z,18.46
2019-06-27T03:59:37.202Z,18.39
2019-06-27T04:02:03.537Z,18.34
2019-06-27T04:04:29.868Z,18.31
2019-06-27T04:06:56.187Z,18.50
2019-06-27T04:09:22.535Z,18.82
2019-06-27T04:11:48.848Z,18.85
2019-06-27T04:14:15.187Z,18.91
2019-06-27T04:16:41.504Z,19.07
2019-06-27T04:19:07.836Z,19.22
2019-06-27T04:21:34.153Z,19.28
2019-06-27T04:24:00.472Z,19.33
2019-06-27T04:26:26.814Z,19.44
2019-06-27T04:28:53.133Z,19.57
2019-06-27T04:31:19.469Z,19.67
2019-06-27T04:33:45.815Z,19.85
2019-06-27T04:36:12.112Z,20.22
2019-06-27T04:38:38.446Z,20.49
2019-06-27T04:41:04.949Z,20.65
2019-06-27T04:43:31.265Z,20.63
2019-06-27T04:45:57.603Z,20.68
2019-06-27T04:48:23.971Z,20.76
2019-06-27T04:50:50.277Z,20.84
2019-06-27T04:53:16.589Z,20.89
2019-06-27T04:55:42.924Z,20.86
2019-06-27T04:58:09.241Z,20.93
2019-06-27T05:00:35.599Z,21.15
2019-06-27T05:03:01.924Z,21.25
2019-06-27T05:05:28.236Z,21.44
2019-06-27T05:07:54.615Z,21.57
2019-06-27T05:10:20.929Z,21.72
2019-06-27T05:12:47.256Z,21.95
2019-06-27T05:15:13.595Z,22.14
2019-06-27T05:17:39.910Z,22.28
2019-06-27T05:20:06.247Z,22.51
2019-06-27T05:22:32.579Z,22.59
2019-06-27T05:24:58.892Z,22.66
2019-06-27T05:27:25.226Z,22.81
2019-06-27T05:29:51.536Z,23.26
2019-06-27T05:32:17.908Z,23.48
2019-06-27T05:34:44.263Z,23.60
2019-06-27T05:37:10.570Z,23.82
2019-06-27T05:39:36.882Z,24.30
2019-06-27T05:42:03.191Z,25.31
2019-06-27T05:44:29.664Z,26.35
2019-06-27T05:46:55.977Z,27.21
2019-06-27T05:49:22.306Z,27.49
2019-06-27T05:51:48.664Z,27.66
2019-06-27T05:54:14.961Z,27.34
2019-06-27T05:56:41.276Z,26.87
2019-06-27T05:59:07.584Z,26.91
2019-06-27T06:01:33.906Z,27.96
2019-06-27T06:04:00.241Z,27.91
2019-06-27T06:06:26.587Z,28.54
2019-06-27T06:08:52.929Z,29.09
2019-06-27T06:11:19.229Z,29.57
2019-06-27T06:13:45.557Z,29.59
2019-06-27T06:16:11.899Z,29.59
2019-06-27T06:18:38.223Z,29.58
2019-06-27T06:21:04.554Z,30.26
2019-06-27T06:23:30.865Z,30.50
2019-06-27T06:25:57.192Z,29.87
2019-06-27T06:28:23.493Z,28.72
2019-06-27T06:30:49.823Z,28.39
2019-06-27T06:33:16.130Z,29.08
2019-06-27T06:35:42.464Z,30.06
2019-06-27T06:38:08.769Z,30.14
2019-06-27T06:40:35.098Z,30.26
2019-06-27T06:43:01.408Z,30.35
2019-06-27T06:45:27.713Z,30.48
2019-06-27T06:47:54.038Z,30.31
2019-06-27T06:50:23.417Z,30.86
2019-06-27T06:52:46.673Z,30.40
2019-06-27T06:55:12.980Z,30.36
2019-06-27T06:57:39.380Z,30.66
2019-06-27T07:00:05.734Z,30.91
2019-06-27T07:02:32.005Z,30.48
2019-06-27T07:04:58.377Z,30.28
2019-06-27T07:07:24.685Z,30.31
2019-06-27T07:09:51.035Z,30.28
2019-06-27T07:12:17.367Z,30.37
2019-06-27T07:14:43.713Z,30.57
2019-06-27T07:17:10.041Z,30.84
2019-06-27T07:19:36.368Z,30.67
2019-06-27T07:22:02.682Z,30.70
2019-06-27T07:24:29.011Z,30.45
2019-06-27T07:26:55.317Z,30.32
2019-06-27T07:29:21.642Z,30.92
2019-06-27T07:31:47.996Z,31.50
2019-06-27T07:34:14.324Z,32.03
2019-06-27T07:36:40.679Z,31.95
2019-06-27T07:39:06.945Z,32.13
2019-06-27T07:41:33.275Z,31.83
2019-06-27T07:43:59.580Z,31.18
2019-06-27T07:46:26.166Z,30.92
2019-06-27T07:48:52.253Z,30.86
2019-06-27T07:51:18.575Z,31.67
2019-06-27T07:53:44.888Z,31.28
2019-06-27T07:56:11.211Z,31.41
2019-06-27T07:58:37.546Z,31.93
2019-06-27T08:01:03.845Z,32.72
2019-06-27T08:03:30.175Z,33.03
2019-06-27T08:05:56.492Z,33.16
2019-06-27T08:08:22.823Z,33.21
2019-06-27T08:10:49.175Z,33.26
2019-06-27T08:13:15.445Z,33.49
2019-06-27T08:15:41.765Z,33.34
2019-06-27T08:18:08.074Z,33.51
2019-06-27T08:20:34.406Z,33.59
2019-06-27T08:23:00.716Z,33.51
2019-06-27T08:25:27.040Z,33.76
2019-06-27T08:27:53.436Z,33.34
2019-06-27T08:30:19.732Z,33.73
2019-06-27T08:32:46.061Z,33.57
2019-06-27T08:35:12.366Z,33.18
2019-06-27T08:37:38.681Z,32.85
2019-06-27T08:40:05.097Z,33.16
2019-06-27T08:42:31.389Z,33.15
2019-06-27T08:44:57.754Z,33.27
2019-06-27T08:47:24.654Z,33.52
2019-06-27T08:49:51.504Z,33.61
2019-06-27T08:52:18.265Z,33.34
2019-06-27T08:54:44.610Z,33.23
2019-06-27T08:57:10.952Z,32.93
2019-06-27T08:59:37.276Z,32.70
2019-06-27T09:02:08.504Z,32.31
2019-06-27T09:04:29.884Z,32.81
2019-06-27T09:06:56.212Z,33.62
2019-06-27T09:09:22.519Z,33.87
2019-06-27T09:11:48.843Z,33.97
2019-06-27T09:14:15.148Z,34.10
2019-06-27T09:16:41.465Z,33.51
2019-06-27T09:19:07.810Z,33.43
2019-06-27T09:21:34.125Z,33.56
2019-06-27T09:24:00.450Z,34.42
2019-06-27T09:26:26.763Z,34.76
2019-06-27T09:28:53.100Z,34.68
2019-06-27T09:31:19.400Z,34.26
2019-06-27T09:33:45.726Z,34.14
2019-06-27T09:36:12.054Z,34.68
2019-06-27T09:38:38.386Z,34.89
2019-06-27T09:41:04.679Z,34.73
2019-06-27T09:43:30.985Z,35.33
2019-06-27T09:45:57.289Z,35.31
2019-06-27T09:48:23.683Z,35.65
2019-06-27T09:50:49.989Z,35.48
2019-06-27T09:53:16.313Z,35.46
2019-06-27T09:55:42.643Z,35.44
2019-06-27T09:58:08.987Z,35.42
2019-06-27T10:00:35.266Z,35.79
2019-06-27T10:03:01.673Z,35.95
2019-06-27T10:05:27.899Z,36.03
2019-06-27T10:07:54.216Z,36.24
2019-06-27T10:10:20.531Z,36.33
2019-06-27T10:12:46.835Z,35.97
2019-06-27T10:15:13.149Z,35.87
2019-06-27T10:17:39.555Z,35.65
2019-06-27T10:20:05.780Z,35.36
2019-06-27T10:22:32.111Z,35.65
2019-06-27T10:24:58.436Z,35.99
2019-06-27T10:27:24.739Z,35.61
2019-06-27T10:29:51.115Z,35.28
2019-06-27T10:32:17.420Z,35.53
2019-06-27T10:34:43.764Z,35.04
2019-06-27T10:37:10.071Z,34.52
2019-06-27T10:39:36.380Z,34.76
2019-06-27T10:42:02.707Z,35.42
2019-06-27T10:44:29.086Z,35.44
2019-06-27T10:46:55.482Z,35.11
2019-06-27T10:49:21.726Z,34.41
2019-06-27T10:51:48.044Z,34.75
2019-06-27T10:54:14.383Z,34.33
2019-06-27T10:56:40.694Z,33.92
2019-06-27T10:59:07.022Z,34.16
2019-06-27T11:01:33.321Z,34.28
2019-06-27T11:03:59.640Z,34.21
2019-06-27T11:06:25.969Z,33.91
2019-06-27T11:08:52.274Z,34.36
2019-06-27T11:11:18.593Z,34.56
2019-06-27T11:13:57.947Z,34.16
2019-06-27T11:16:11.225Z,33.39
2019-06-27T11:18:37.558Z,33.16
2019-06-27T11:21:03.863Z,33.57
2019-06-27T11:23:30.185Z,33.68
2019-06-27T11:25:56.500Z,33.43
2019-06-27T11:28:22.817Z,33.70
2019-06-27T11:30:49.134Z,33.98
2019-06-27T11:33:31.338Z,33.77
2019-06-27T11:35:41.778Z,33.80
2019-06-27T11:38:08.073Z,33.44
2019-06-27T11:40:34.404Z,33.47
2019-06-27T11:43:00.715Z,33.81
2019-06-27T11:45:27.068Z,33.50
2019-06-27T11:47:53.352Z,33.61
2019-06-27T11:50:19.688Z,33.76
2019-06-27T11:52:47.256Z,33.22
2019-06-27T11:55:12.321Z,33.28
2019-06-27T11:57:39.068Z,33.92
2019-06-27T12:00:05.375Z,33.84
2019-06-27T12:02:34.974Z,33.05
2019-06-27T12:05:01.287Z,33.40
2019-06-27T12:07:27.620Z,33.39
2019-06-27T12:09:53.954Z,33.18
2019-06-27T12:12:20.260Z,32.42
2019-06-27T12:14:46.592Z,32.41
2019-06-27T12:17:12.908Z,32.61
2019-06-27T12:19:39.223Z,32.70
2019-06-27T12:22:05.554Z,32.30
2019-06-27T12:24:31.858Z,32.03
2019-06-27T12:26:58.223Z,31.86
2019-06-27T12:29:24.551Z,32.35
2019-06-27T12:31:51.881Z,32.86
2019-06-27T12:34:17.200Z,32.82
2019-06-27T12:36:43.497Z,32.98
2019-06-27T12:39:09.821Z,32.74
2019-06-27T12:41:36.127Z,32.78
2019-06-27T12:44:02.455Z,32.96
2019-06-27T12:46:28.761Z,32.74
2019-06-27T12:48:55.228Z,32.67
2019-06-27T12:51:21.446Z,32.91
2019-06-27T12:53:47.724Z,33.30
2019-06-27T12:56:14.075Z,33.71
2019-06-27T12:58:40.403Z,34.42
2019-06-27T13:01:06.700Z,34.73
2019-06-27T13:03:33.007Z,33.93
2019-06-27T13:05:59.330Z,33.60
2019-06-27T13:08:25.648Z,33.17
2019-06-27T13:10:52.049Z,32.61
2019-06-27T13:13:18.376Z,32.29
2019-06-27T13:15:44.688Z,32.26
2019-06-27T13:18:11.017Z,32.77
2019-06-27T13:20:37.535Z,33.16
2019-06-27T13:23:03.861Z,34.45
2019-06-27T13:25:33.868Z,35.51
2019-06-27T13:27:56.500Z,36.11
2019-06-27T13:30:22.829Z,37.17
2019-06-27T13:32:49.131Z,37.13
2019-06-27T13:35:15.503Z,37.47
2019-06-27T13:37:41.821Z,37.11
2019-06-27T13:40:08.072Z,35.37
2019-06-27T13:42:38.010Z,33.75
2019-06-27T13:45:00.715Z,32.89
2019-06-27T13:47:27.047Z,32.56
2019-06-27T13:49:53.386Z,32.41
2019-06-27T13:52:19.693Z,32.31
2019-06-27T13:54:46.101Z,32.11
2019-06-27T13:57:12.413Z,31.97
2019-06-27T13:59:38.743Z,31.79
2019-06-27T14:02:05.048Z,31.63
2019-06-27T14:04:31.518Z,31.66
2019-06-27T14:06:57.825Z,31.63
2019-06-27T14:09:24.139Z,31.71
2019-06-27T14:11:50.464Z,31.84
2019-06-27T14:14:16.770Z,31.83
2019-06-27T14:16:43.102Z,31.62
2019-06-27T14:19:09.411Z,31.45
2019-06-27T14:21:35.743Z,31.35
2019-06-27T14:24:02.046Z,31.27
2019-06-27T14:26:28.384Z,31.34
2019-06-27T14:28:54.729Z,31.36
2019-06-27T14:31:21.013Z,31.23
2019-06-27T14:33:47.338Z,31.36
2019-06-27T14:36:13.647Z,31.59
2019-06-27T14:38:39.974Z,31.52
2019-06-27T14:41:06.278Z,31.18
2019-06-27T14:43:32.660Z,31.13
2019-06-27T14:45:58.978Z,31.27
2019-06-27T14:48:25.280Z,31.38
2019-06-27T14:50:51.609Z,31.46
2019-06-27T14:53:17.909Z,31.25
2019-06-27T14:55:44.235Z,31.44
2019-06-27T14:58:10.559Z,31.51
2019-06-27T15:00:36.866Z,31.51
2019-06-27T15:03:03.187Z,31.53
2019-06-27T15:05:33.110Z,31.45
2019-06-27T15:07:55.831Z,31.34
2019-06-27T15:10:22.138Z,31.29
2019-06-27T15:12:57.077Z,31.31
2019-06-27T15:15:14.763Z,31.29
2019-06-27T15:17:41.071Z,31.25
2019-06-27T15:20:07.396Z,31.05
2019-06-27T15:22:33.705Z,30.97
2019-06-27T15:25:00.035Z,30.89
2019-06-27T15:27:26.367Z,30.87
2019-06-27T15:29:52.744Z,30.94
2019-06-27T15:32:19.014Z,30.90
2019-06-27T15:34:45.302Z,31.03
2019-06-27T15:37:11.619Z,31.23
2019-06-27T15:39:37.942Z,31.30
2019-06-27T15:42:04.244Z,31.24
2019-06-27T15:44:30.576Z,31.20
2019-06-27T15:46:57.202Z,31.09
2019-06-27T15:49:23.505Z,30.79
2019-06-27T15:51:49.827Z,30.69
2019-06-27T15:54:16.134Z,30.65
2019-06-27T15:56:42.480Z,30.63
2019-06-27T15:59:08.781Z,30.63
2019-06-27T16:01:35.111Z,30.61
2019-06-27T16:04:01.421Z,30.64
2019-06-27T16:06:27.729Z,30.65
2019-06-27T16:08:54.066Z,30.63
2019-06-27T16:11:20.382Z,30.59
2019-06-27T16:13:46.699Z,30.53
2019-06-27T16:16:13.026Z,30.57
2019-06-27T16:18:40.979Z,30.55
2019-06-27T16:21:05.680Z,30.40
2019-06-27T16:23:31.964Z,30.31
2019-06-27T16:25:58.269Z,30.34
2019-06-27T16:28:27.122Z,30.29
2019-06-27T16:30:50.914Z,30.22
2019-06-27T16:33:17.245Z,30.20
2019-06-27T16:35:43.554Z,30.20
2019-06-27T16:38:09.894Z,30.15
2019-06-27T16:40:36.200Z,30.05
2019-06-27T16:43:02.531Z,30.02
2019-06-27T16:45:28.877Z,29.98
2019-06-27T16:47:55.262Z,29.91
2019-06-27T16:50:21.587Z,29.90
2019-06-27T16:52:47.892Z,29.87
2019-06-27T16:55:14.223Z,29.81
2019-06-27T16:57:40.533Z,29.73
2019-06-27T17:00:06.948Z,29.67
2019-06-27T17:02:33.171Z,29.60
2019-06-27T17:04:59.473Z,29.58
2019-06-27T17:07:25.802Z,29.60
2019-06-27T17:09:52.100Z,29.61
2019-06-27T17:12:18.456Z,29.61
2019-06-27T17:14:44.730Z,29.57
2019-06-27T17:17:11.064Z,29.53
2019-06-27T17:19:37.364Z,29.41
2019-06-27T17:22:03.692Z,29.35
2019-06-27T17:24:30.019Z,29.28
2019-06-27T17:26:56.325Z,29.23
2019-06-27T17:29:22.659Z,29.19
2019-06-27T17:31:48.955Z,29.10
2019-06-27T17:34:15.263Z,29.02
2019-06-27T17:36:53.575Z,28.98
2019-06-27T17:39:07.903Z,28.93
2019-06-27T17:41:34.243Z,28.89
2019-06-27T17:44:00.565Z,28.82
2019-06-27T17:46:26.896Z,28.75
2019-06-27T17:48:53.254Z,28.68
2019-06-27T17:51:19.558Z,28.63
2019-06-27T17:53:45.888Z,28.59
2019-06-27T17:56:12.223Z,28.47
2019-06-27T17:58:38.551Z,28.38
2019-06-27T18:01:04.852Z,28.31
2019-06-27T18:03:31.166Z,28.23
2019-06-27T18:05:57.492Z,28.16
2019-06-27T18:08:23.800Z,28.14
2019-06-27T18:10:50.122Z,28.13
2019-06-27T18:13:16.428Z,28.04
2019-06-27T18:15:42.752Z,27.95
2019-06-27T18:18:09.081Z,27.84
2019-06-27T18:20:35.407Z,27.76
2019-06-27T18:23:01.775Z,27.66
2019-06-27T18:25:28.076Z,27.58
2019-06-27T18:27:54.407Z,27.49
2019-06-27T18:30:20.710Z,27.44
2019-06-27T18:32:47.081Z,27.43
2019-06-27T18:35:13.353Z,27.38
2019-06-27T18:37:39.687Z,27.35
2019-06-27T18:40:05.989Z,27.30
2019-06-27T18:42:32.321Z,27.22
2019-06-27T18:44:58.643Z,27.18
2019-06-27T18:47:24.951Z,27.16
2019-06-27T18:49:51.299Z,27.09
2019-06-27T18:52:17.600Z,27.00
2019-06-27T18:54:43.910Z,26.91
2019-06-27T18:57:10.236Z,26.93
2019-06-27T18:59:36.541Z,26.93
2019-06-27T19:02:02.851Z,26.88
2019-06-27T19:04:29.183Z,26.87
2019-06-27T19:06:55.484Z,26.82
2019-06-27T19:09:21.823Z,26.76
2019-06-27T19:11:48.124Z,26.70
2019-06-27T19:14:14.454Z,26.67
2019-06-27T19:16:40.758Z,26.59
2019-06-27T19:19:07.094Z,26.53
2019-06-27T19:21:33.415Z,26.54
2019-06-27T19:23:59.720Z,26.55
2019-06-27T19:26:26.048Z,26.47
2019-06-27T19:28:52.353Z,26.40
2019-06-27T19:31:18.699Z,26.38
2019-06-27T19:33:44.990Z,26.32
2019-06-27T19:36:11.315Z,26.24
2019-06-27T19:38:37.627Z,26.17
2019-06-27T19:41:03.933Z,26.16
2019-06-27T19:43:30.261Z,26.10
2019-06-27T19:45:56.570Z,26.02
2019-06-27T19:48:22.896Z,25.97
2019-06-27T19:50:49.214Z,25.98
2019-06-27T19:53:15.531Z,25.95
2019-06-27T19:55:41.846Z,25.90
2019-06-27T19:58:08.170Z,25.86
2019-06-27T20:00:34.501Z,25.73
2019-06-27T20:03:00.833Z,25.69
2019-06-27T20:05:27.141Z,25.66
2019-06-27T20:07:53.441Z,25.68
2019-06-27T20:10:19.752Z,25.63
2019-06-27T20:12:46.069Z,25.61
2019-06-27T20:15:12.396Z,25.60
2019-06-27T20:17:38.723Z,25.57
2019-06-27T20:20:05.147Z,25.49
2019-06-27T20:22:31.453Z,25.42
2019-06-27T20:24:57.788Z,25.37
2019-06-27T20:27:24.118Z,25.33
2019-06-27T20:29:50.451Z,25.31
2019-06-27T20:32:16.758Z,25.24
2019-06-27T20:34:43.092Z,25.21
2019-06-27T20:37:09.393Z,25.23
2019-06-27T20:39:35.705Z,25.21
2019-06-27T20:42:02.025Z,25.23
2019-06-27T20:44:28.362Z,25.17
2019-06-27T20:46:54.684Z,25.04
2019-06-27T20:49:21.013Z,25.01
2019-06-27T20:51:47.347Z,24.97
2019-06-27T20:54:13.676Z,24.94
2019-06-27T20:56:39.986Z,24.96
2019-06-27T20:59:06.307Z,24.78
2019-06-27T21:01:32.629Z,24.85
2019-06-27T21:03:58.944Z,24.77
2019-06-27T21:06:25.272Z,24.65
2019-06-27T21:08:52.119Z,24.62
2019-06-27T21:11:17.902Z,24.60
2019-06-27T21:13:44.204Z,24.55
2019-06-27T21:16:10.535Z,24.56
2019-06-27T21:18:36.920Z,24.56
2019-06-27T21:21:03.334Z,24.60
2019-06-27T21:23:29.507Z,24.59
2019-06-27T21:25:55.798Z,24.47
2019-06-27T21:28:22.108Z,24.28
2019-06-27T21:30:48.440Z,24.20
2019-06-27T21:33:14.749Z,24.12
2019-06-27T21:35:41.076Z,24.05
2019-06-27T21:38:07.395Z,24.15
2019-06-27T21:40:33.703Z,23.94
2019-06-27T21:43:00.028Z,23.96
2019-06-27T21:45:26.332Z,23.79
2019-06-27T21:47:52.657Z,23.87
2019-06-27T21:50:18.964Z,23.67
2019-06-27T21:52:45.294Z,23.75
2019-06-27T21:55:11.610Z,23.77
2019-06-27T21:57:37.918Z,23.63
2019-06-27T22:00:04.250Z,23.65
2019-06-27T22:02:30.598Z,23.76
2019-06-27T22:04:56.892Z,23.83
2019-06-27T22:07:23.196Z,23.83
2019-06-27T22:09:49.517Z,23.81
2019-06-27T22:12:15.824Z,23.59
2019-06-27T22:14:42.154Z,23.82
2019-06-27T22:17:08.475Z,23.75
2019-06-27T22:19:34.781Z,23.74
2019-06-27T22:22:01.179Z,23.71
2019-06-27T22:24:27.490Z,23.72
2019-06-27T22:26:53.817Z,23.87
2019-06-27T22:29:20.138Z,23.87
2019-06-27T22:31:46.449Z,23.94
2019-06-27T22:34:12.747Z,23.96
2019-06-27T22:36:39.062Z,23.77
2019-06-27T22:39:05.394Z,23.57
2019-06-27T22:41:31.699Z,23.49
2019-06-27T22:43:58.030Z,23.48
2019-06-27T22:46:24.356Z,23.50
2019-06-27T22:48:50.661Z,23.53
2019-06-27T22:51:16.994Z,23.54
2019-06-27T22:53:43.302Z,23.56
2019-06-27T22:56:09.609Z,23.60
2019-06-27T22:58:35.939Z,23.63
2019-06-27T23:01:02.242Z,23.64
2019-06-27T23:03:28.568Z,23.60
2019-06-27T23:05:54.877Z,23.60
2019-06-27T23:08:21.200Z,23.63
2019-06-27T23:10:47.499Z,23.70
2019-06-27T23:13:13.889Z,23.72
2019-06-27T23:15:40.161Z,23.82
2019-06-27T23:18:06.484Z,23.89
2019-06-27T23:20:32.817Z,23.66
2019-06-27T23:22:59.120Z,23.69
2019-06-27T23:25:25.451Z,23.63
2019-06-27T23:27:51.754Z,23.77
2019-06-27T23:30:18.084Z,23.89
2019-06-27T23:32:44.389Z,23.74
2019-06-27T23:35:10.698Z,23.76
2019-06-27T23:37:37.023Z,23.71
2019-06-27T23:40:13.615Z,23.71
2019-06-27T23:42:29.660Z,23.66
2019-06-27T23:44:55.965Z,23.72
2019-06-27T23:47:22.296Z,23.54
2019-06-27T23:49:48.602Z,23.48
2019-06-27T23:52:14.932Z,23.51
2019-06-27T23:54:41.252Z,23.35
2019-06-27T23:57:07.564Z,23.32
2019-06-27T23:59:33.892Z,23.26
